sensor_id;sensor_type;location;lat;lon;timestamp;P1;durP1;ratioP1;P2;durP2;ratioP2
59830;SDS011;45711;50.108;13.712;2022-10-16T08:20:14;5.30;;;2.50;;
59830;SDS011;45711;50.108;13.712;2022-10-16T08:29:28;2.20;;;1.70;;
59830;SDS011;45711;50.108;13.712;2022-10-16T08:49:31;3.97;;;2.53;;
59830;SDS011;45711;50.108;13.712;2022-10-16T08:56:21;2.90;;;1.80;;
59830;SDS011;45711;50.108;13.712;2022-10-16T08:59:39;4.53;;;1.63;;
59830;SDS011;45711;50.108;13.712;2022-10-16T09:34:43;2.35;;;1.75;;
59830;SDS011;45711;50.108;13.712;2022-10-16T09:41:33;2.47;;;1.75;;
59830;SDS011;45711;50.108;13.712;2022-10-16T12:31:24;1.17;;;0.97;;
59830;SDS011;45711;50.108;13.712;2022-10-16T12:32:43;1.17;;;0.73;;
59830;SDS011;45711;50.108;13.712;2022-10-16T12:36:04;2.05;;;1.08;;
59830;SDS011;45711;50.108;13.712;2022-10-16T12:38:44;3.60;;;0.82;;
59830;SDS011;45711;50.108;13.712;2022-10-16T12:41:45;1.88;;;0.80;;
59830;SDS011;45711;50.108;13.712;2022-10-16T12:44:21;1.08;;;0.82;;
59830;SDS011;45711;50.108;13.712;2022-10-16T12:47:35;2.33;;;1.58;;
59830;SDS011;45711;50.108;13.712;2022-10-16T12:50:31;1.52;;;0.93;;
59830;SDS011;45711;50.108;13.712;2022-10-16T12:53:04;1.55;;;0.73;;
59830;SDS011;45711;50.108;13.712;2022-10-16T12:55:51;0.98;;;0.70;;
59830;SDS011;45711;50.108;13.712;2022-10-16T12:58:33;0.90;;;0.70;;
59830;SDS011;45711;50.108;13.712;2022-10-16T13:01:15;1.67;;;1.00;;
59830;SDS011;45711;50.108;13.712;2022-10-16T13:07:03;0.80;;;0.80;;
59830;SDS011;45711;50.108;13.712;2022-10-16T13:09:55;1.75;;;0.68;;
59830;SDS011;45711;50.108;13.712;2022-10-16T13:12:40;2.40;;;0.77;;
59830;SDS011;45711;50.108;13.712;2022-10-16T13:15:46;1.05;;;0.88;;
59830;SDS011;45711;50.108;13.712;2022-10-16T13:18:35;1.77;;;0.70;;
59830;SDS011;45711;50.108;13.712;2022-10-16T13:21:19;3.03;;;0.85;;
59830;SDS011;45711;50.108;13.712;2022-10-16T13:27:29;1.63;;;0.80;;
59830;SDS011;45711;50.108;13.712;2022-10-16T13:30:16;1.10;;;0.85;;
59830;SDS011;45711;50.108;13.712;2022-10-16T13:36:25;1.15;;;0.90;;
59830;SDS011;45711;50.108;13.712;2022-10-16T13:38:59;1.80;;;1.00;;
59830;SDS011;45711;50.108;13.712;2022-10-16T13:41:31;2.47;;;1.65;;
59830;SDS011;45711;50.108;13.712;2022-10-16T13:43:57;1.60;;;0.90;;
59830;SDS011;45711;50.108;13.712;2022-10-16T13:46:25;2.00;;;1.13;;
59830;SDS011;45711;50.108;13.712;2022-10-16T13:49:16;0.80;;;0.60;;
59830;SDS011;45711;50.108;13.712;2022-10-16T13:51:54;1.10;;;0.90;;
59830;SDS011;45711;50.108;13.712;2022-10-16T13:54:22;1.25;;;0.90;;
59830;SDS011;45711;50.108;13.712;2022-10-16T13:56:48;1.27;;;0.88;;
59830;SDS011;45711;50.108;13.712;2022-10-16T13:59:23;3.58;;;0.80;;
59830;SDS011;45711;50.108;13.712;2022-10-16T14:01:58;1.13;;;0.98;;
59830;SDS011;45711;50.108;13.712;2022-10-16T14:04:30;0.80;;;0.70;;
59830;SDS011;45711;50.108;13.712;2022-10-16T14:06:59;1.40;;;1.00;;
59830;SDS011;45711;50.108;13.712;2022-10-16T14:09:34;2.15;;;0.90;;
59830;SDS011;45711;50.108;13.712;2022-10-16T14:12:02;0.85;;;0.70;;
59830;SDS011;45711;50.108;13.712;2022-10-16T14:14:31;2.47;;;0.85;;
59830;SDS011;45711;50.108;13.712;2022-10-16T14:17:00;2.35;;;0.90;;
59830;SDS011;45711;50.108;13.712;2022-10-16T14:19:30;1.35;;;0.88;;
59830;SDS011;45711;50.108;13.712;2022-10-16T14:29:02;1.27;;;0.73;;
59830;SDS011;45711;50.108;13.712;2022-10-16T14:39:19;2.92;;;1.63;;
59830;SDS011;45711;50.108;13.712;2022-10-16T14:42:11;2.95;;;1.85;;
59830;SDS011;45711;50.108;13.712;2022-10-16T14:45:37;3.70;;;2.35;;
59830;SDS011;45711;50.108;13.712;2022-10-16T14:48:35;2.40;;;1.80;;
59830;SDS011;45711;50.108;13.712;2022-10-16T14:54:40;2.38;;;1.65;;
59830;SDS011;45711;50.108;13.712;2022-10-16T14:57:16;3.28;;;1.90;;
59830;SDS011;45711;50.108;13.712;2022-10-16T14:59:54;3.17;;;1.83;;
59830;SDS011;45711;50.108;13.712;2022-10-16T15:02:50;2.78;;;1.50;;
59830;SDS011;45711;50.108;13.712;2022-10-16T15:05:21;5.53;;;1.67;;
59830;SDS011;45711;50.108;13.712;2022-10-16T15:08:04;2.72;;;1.67;;
59830;SDS011;45711;50.108;13.712;2022-10-16T15:10:43;1.70;;;1.20;;
59830;SDS011;45711;50.108;13.712;2022-10-16T15:13:20;3.05;;;1.58;;
59830;SDS011;45711;50.108;13.712;2022-10-16T15:15:52;3.80;;;1.45;;
59830;SDS011;45711;50.108;13.712;2022-10-16T15:18:22;2.78;;;1.50;;
59830;SDS011;45711;50.108;13.712;2022-10-16T15:24:04;2.60;;;1.60;;
59830;SDS011;45711;50.108;13.712;2022-10-16T15:26:44;2.53;;;1.50;;
59830;SDS011;45711;50.108;13.712;2022-10-16T15:29:30;2.20;;;1.50;;
59830;SDS011;45711;50.108;13.712;2022-10-16T15:32:00;2.67;;;1.52;;
59830;SDS011;45711;50.108;13.712;2022-10-16T15:34:37;1.80;;;1.35;;
59830;SDS011;45711;50.108;13.712;2022-10-16T15:37:10;2.55;;;1.45;;
59830;SDS011;45711;50.108;13.712;2022-10-16T15:43:50;2.38;;;1.55;;
59830;SDS011;45711;50.108;13.712;2022-10-16T15:47:59;2.58;;;1.60;;
59830;SDS011;45711;50.108;13.712;2022-10-16T17:04:15;4.40;;;2.83;;
59830;SDS011;45711;50.108;13.712;2022-10-16T17:10:57;19.73;;;3.35;;
59830;SDS011;45711;50.108;13.712;2022-10-16T17:23:35;4.05;;;2.50;;
59830;SDS011;45711;50.108;13.712;2022-10-16T17:26:30;5.22;;;2.97;;
59830;SDS011;45711;50.108;13.712;2022-10-16T17:29:32;7.13;;;2.80;;
59830;SDS011;45711;50.108;13.712;2022-10-16T17:38:29;4.85;;;2.60;;
59830;SDS011;45711;50.108;13.712;2022-10-16T17:48:00;5.00;;;2.50;;
59830;SDS011;45711;50.108;13.712;2022-10-16T17:54:01;6.55;;;3.70;;
59830;SDS011;45711;50.108;13.712;2022-10-16T17:56:47;4.80;;;2.65;;
59830;SDS011;45711;50.108;13.712;2022-10-16T17:59:22;7.55;;;4.88;;
59830;SDS011;45711;50.108;13.712;2022-10-16T18:01:58;4.40;;;2.35;;
59830;SDS011;45711;50.108;13.712;2022-10-16T18:48:58;21.55;;;8.73;;
59830;SDS011;45711;50.108;13.712;2022-10-16T18:58:29;6.63;;;3.65;;
59830;SDS011;45711;50.108;13.712;2022-10-16T19:17:53;35.67;;;11.63;;
59830;SDS011;45711;50.108;13.712;2022-10-16T19:21:10;19.25;;;7.00;;
59830;SDS011;45711;50.108;13.712;2022-10-16T19:33:49;15.75;;;5.72;;
59830;SDS011;45711;50.108;13.712;2022-10-16T19:36:40;10.57;;;5.55;;
59830;SDS011;45711;50.108;13.712;2022-10-16T19:39:17;12.70;;;5.70;;
59830;SDS011;45711;50.108;13.712;2022-10-16T19:41:52;15.23;;;5.47;;
59830;SDS011;45711;50.108;13.712;2022-10-16T19:44:28;12.60;;;5.72;;
59830;SDS011;45711;50.108;13.712;2022-10-16T19:47:39;13.02;;;5.90;;
59830;SDS011;45711;50.108;13.712;2022-10-16T19:54:05;35.10;;;11.38;;
59830;SDS011;45711;50.108;13.712;2022-10-16T19:56:39;20.40;;;8.75;;
59830;SDS011;45711;50.108;13.712;2022-10-16T20:03:51;20.70;;;8.18;;
59830;SDS011;45711;50.108;13.712;2022-10-16T20:06:18;21.50;;;8.25;;
59830;SDS011;45711;50.108;13.712;2022-10-16T20:09:42;21.48;;;8.85;;
59830;SDS011;45711;50.108;13.712;2022-10-16T20:13:05;14.90;;;7.22;;
59830;SDS011;45711;50.108;13.712;2022-10-16T20:16:14;24.33;;;7.45;;
59830;SDS011;45711;50.108;13.712;2022-10-16T20:18:47;8.60;;;4.43;;
59830;SDS011;45711;50.108;13.712;2022-10-16T20:22:05;8.00;;;4.03;;
59830;SDS011;45711;50.108;13.712;2022-10-16T20:24:43;17.25;;;6.30;;
59830;SDS011;45711;50.108;13.712;2022-10-16T20:33:09;8.18;;;4.20;;
59830;SDS011;45711;50.108;13.712;2022-10-16T20:35:58;34.53;;;12.23;;
59830;SDS011;45711;50.108;13.712;2022-10-16T20:45:19;29.48;;;11.55;;
59830;SDS011;45711;50.108;13.712;2022-10-16T20:48:46;40.45;;;12.35;;
59830;SDS011;45711;50.108;13.712;2022-10-16T20:51:38;35.03;;;12.80;;
59830;SDS011;45711;50.108;13.712;2022-10-16T20:54:12;34.20;;;11.43;;
59830;SDS011;45711;50.108;13.712;2022-10-16T21:00:04;12.15;;;4.55;;
59830;SDS011;45711;50.108;13.712;2022-10-16T21:02:44;9.43;;;5.00;;
59830;SDS011;45711;50.108;13.712;2022-10-16T21:11:21;22.75;;;7.90;;
59830;SDS011;45711;50.108;13.712;2022-10-16T21:14:08;16.67;;;6.00;;
59830;SDS011;45711;50.108;13.712;2022-10-16T21:19:34;8.02;;;4.25;;
59830;SDS011;45711;50.108;13.712;2022-10-16T21:22:02;12.32;;;4.90;;
59830;SDS011;45711;50.108;13.712;2022-10-16T21:24:36;60.17;;;16.85;;
59830;SDS011;45711;50.108;13.712;2022-10-16T21:27:57;82.10;;;20.50;;
59830;SDS011;45711;50.108;13.712;2022-10-16T21:30:21;66.97;;;18.02;;
59830;SDS011;45711;50.108;13.712;2022-10-16T21:33:05;67.03;;;17.73;;
59830;SDS011;45711;50.108;13.712;2022-10-16T21:35:52;48.25;;;13.38;;
59830;SDS011;45711;50.108;13.712;2022-10-16T21:38:31;29.40;;;9.13;;
59830;SDS011;45711;50.108;13.712;2022-10-16T21:41:41;25.85;;;7.93;;
59830;SDS011;45711;50.108;13.712;2022-10-16T21:44:44;13.80;;;5.05;;
59830;SDS011;45711;50.108;13.712;2022-10-16T21:59:21;11.32;;;4.75;;
59830;SDS011;45711;50.108;13.712;2022-10-16T22:01:46;13.90;;;4.85;;
59830;SDS011;45711;50.108;13.712;2022-10-16T22:04:16;10.95;;;4.70;;
59830;SDS011;45711;50.108;13.712;2022-10-16T22:06:59;10.38;;;4.63;;
59830;SDS011;45711;50.108;13.712;2022-10-16T22:09:48;13.10;;;5.35;;
59830;SDS011;45711;50.108;13.712;2022-10-16T22:12:31;17.70;;;5.28;;
59830;SDS011;45711;50.108;13.712;2022-10-16T22:15:13;13.05;;;4.95;;
59830;SDS011;45711;50.108;13.712;2022-10-16T22:17:59;14.15;;;5.22;;
59830;SDS011;45711;50.108;13.712;2022-10-16T22:20:32;15.57;;;5.90;;
59830;SDS011;45711;50.108;13.712;2022-10-16T22:23:20;10.43;;;5.18;;
59830;SDS011;45711;50.108;13.712;2022-10-16T22:25:56;9.18;;;5.65;;
59830;SDS011;45711;50.108;13.712;2022-10-16T22:28:48;12.70;;;4.95;;
59830;SDS011;45711;50.108;13.712;2022-10-16T22:34:22;7.72;;;4.30;;
59830;SDS011;45711;50.108;13.712;2022-10-16T22:54:08;25.98;;;8.23;;
